Time;durP1;ratioP1;P1;durP2;ratioP2;P2;SDS_P1;SDS_P2;PMS_P1;PMS_P2;Temp;Humidity;BMP_temperature;BMP_pressure;BME280_temperature;BME280_humidity;BME280_pressure;Samples;Min_cycle;Max_cycle;Signal;HPM_P1;HPM_P2
2022/02/19 00:01:10;;;;;;;47.72;26.45;;;;;;;;;;5034988;28;20464;-71
2022/02/19 00:03:35;;;;;;;50.03;27.25;;;256.50;2252.80;;;;;;5034895;28;20029;-68
2022/02/19 00:06:01;;;;;;;50.55;28.40;;;256.40;1792.00;;;;;;5034974;28;20033;-68
2022/02/19 00:08:27;;;;;;;53.97;30.20;;;256.60;1792.00;;;;;;5034741;28;20017;-67
2022/02/19 00:10:52;;;;;;;48.38;27.58;;;256.60;1792.00;;;;;;5034940;28;20479;-68
2022/02/19 00:13:18;;;;;;;57.00;31.60;;;256.70;1766.40;;;;;;5034773;28;20022;-67
2022/02/19 00:15:44;;;;;;;66.93;37.20;;;256.60;1792.00;;;;;;5034534;28;20064;-66
2022/02/19 00:18:11;;;;;;;58.15;33.47;;;;;;;;;;5034583;28;20551;-69
2022/02/19 00:20:37;;;;;;;59.47;33.60;;;256.20;1843.20;;;;;;5034627;28;20027;-66
2022/02/19 00:23:02;;;;;;;53.28;31.00;;;256.20;1843.20;;;;;;5034156;28;20045;-67
2022/02/19 00:25:28;;;;;;;62.08;36.58;;;256.10;1868.80;;;;;;5034513;28;20034;-68
2022/02/19 00:27:54;;;;;;;55.75;31.02;;;256.10;1868.80;;;;;;5034444;28;20022;-67
2022/02/19 00:30:20;;;;;;;51.85;31.17;;;256.20;1868.80;;;;;;5034418;28;20036;-68
2022/02/19 00:32:47;;;;;;;46.65;23.75;;;256.40;1843.20;;;;;;5034148;28;20037;-67
2022/02/19 00:35:13;;;;;;;37.75;23.42;;;256.30;1843.20;;;;;;5034291;28;20132;-68
2022/02/19 00:37:38;;;;;;;41.05;20.88;;;256.50;1843.20;;;;;;5034349;28;20078;-67
2022/02/19 00:40:05;;;;;;;36.83;20.48;;;256.20;1843.20;;;;;;5034061;28;20021;-67
2022/02/19 00:42:31;;;;;;;33.25;18.52;;;256.20;1843.20;;;;;;5034427;28;20025;-69
2022/02/19 00:44:56;;;;;;;28.33;17.85;;;256.40;1843.20;;;;;;5033485;28;20072;-68
2022/02/19 00:47:22;;;;;;;32.38;19.00;;;256.50;1817.60;;;;;;5033936;28;20061;-69
2022/02/19 00:49:48;;;;;;;31.52;19.23;;;256.40;1843.20;;;;;;5034021;28;20392;-68
2022/02/19 00:52:14;;;;;;;29.08;17.75;;;256.20;1843.20;;;;;;5034044;28;20479;-68
2022/02/19 00:54:40;;;;;;;27.55;17.02;;;256.30;1843.20;;;;;;5033734;28;20025;-68
2022/02/19 00:57:06;;;;;;;30.23;17.77;;;256.30;1843.20;;;;;;5040516;28;20487;-69
2022/02/19 00:59:31;;;;;;;28.23;17.30;;;256.20;1843.20;;;;;;5054011;28;20096;-67
2022/02/19 01:01:58;;;;;;;30.67;19.63;;;256.40;1843.20;;;;;;5053888;28;20032;-68
2022/02/19 01:04:23;;;;;;;43.53;25.08;;;256.10;1843.20;;;;;;5053855;28;20499;-68
2022/02/19 01:06:49;;;;;;;44.17;26.00;;;256.20;1843.20;;;;;;5053872;28;20028;-69
2022/02/19 01:09:15;;;;;;;44.70;26.55;;;256.00;1868.80;;;;;;5053726;28;20025;-67
2022/02/19 01:11:41;;;;;;;45.83;27.70;;;256.10;1868.80;;;;;;5051811;28;20029;-69
2022/02/19 01:14:08;;;;;;;41.00;24.15;;;256.30;1843.20;;;;;;5049857;28;20021;-66
2022/02/19 01:16:34;;;;;;;39.35;22.63;;;256.30;1843.20;;;;;;5055370;28;20406;-68
2022/02/19 01:19:00;;;;;;;37.22;20.67;;;256.20;1843.20;;;;;;5053514;28;20023;-68
2022/02/19 01:21:26;;;;;;;37.40;22.33;;;;;;;;;;5053436;28;20115;-69
2022/02/19 01:23:52;;;;;;;33.17;20.45;;;231.20;1868.80;;;;;;5053900;28;20021;-68
2022/02/19 01:26:17;;;;;;;34.45;19.48;;;231.20;1894.40;;;;;;5053109;28;20087;-70
2022/02/19 01:28:43;;;;;;;35.17;18.85;;;;;;;;;;5051980;28;20081;-72
2022/02/19 01:31:10;;;;;;;34.90;18.50;;;231.30;2227.20;;;;;;5045841;28;20027;-69
2022/02/19 01:33:36;;;;;;;26.52;16.90;;;231.20;1894.40;;;;;;5052460;28;20029;-68
2022/02/19 01:36:03;;;;;;;31.00;18.10;;;;;;;;;;5053510;28;20087;-68
2022/02/19 01:38:30;;;;;;;35.28;20.17;;;;;;;;;;5054653;28;20028;-71
2022/02/19 01:40:57;;;;;;;39.63;24.17;;;;;;;;;;5033546;28;20057;-71
2022/02/19 01:43:22;;;;;;;39.88;24.45;;;256.20;1843.20;;;;;;5033876;28;20024;-69
2022/02/19 01:45:48;;;;;;;43.45;25.27;;;256.10;1843.20;;;;;;5033907;28;20391;-69
2022/02/19 01:48:14;;;;;;;46.53;26.13;;;256.00;1868.80;;;;;;5033680;28;20029;-69
2022/02/19 01:50:41;;;;;;;38.72;22.90;;;256.20;1843.20;;;;;;5033592;28;20475;-66
2022/02/19 01:53:08;;;;;;;40.15;23.02;;;;;;;;;;5033863;28;20053;-71
2022/02/19 01:55:34;;;;;;;39.28;21.58;;;;;;;;;;5033172;28;20025;-70
2022/02/19 01:58:02;;;;;;;36.92;21.77;;;231.20;1868.80;;;;;;5036147;28;20100;-70
2022/02/19 02:00:29;;;;;;;32.38;19.33;;;256.10;1868.80;;;;;;5048549;28;20029;-70
2022/02/19 02:02:59;;;;;;;33.28;20.08;;;256.10;1843.20;;;;;;5036469;28;20493;-63
2022/02/19 02:05:25;;;;;;;39.03;23.42;;;256.30;1843.20;;;;;;5050751;28;20029;-70
2022/02/19 02:07:51;;;;;;;43.20;26.02;;;256.10;1868.80;;;;;;5044861;28;20025;-68
2022/02/19 02:10:17;;;;;;;42.75;23.08;;;256.00;1868.80;;;;;;5051231;28;20481;-69
2022/02/19 02:12:43;;;;;;;43.42;23.38;;;231.20;1868.80;;;;;;5050387;28;20033;-68
2022/02/19 02:15:25;;;;;;;36.75;21.52;;;;;;;;;;5047200;28;20025;-70
2022/02/19 02:17:52;;;;;;;49.13;27.40;;;;;;;;;;5052226;28;20021;-70
2022/02/19 02:20:18;;;;;;;34.63;19.85;;;;;;;;;;5052064;28;20021;-70
2022/02/19 02:22:44;;;;;;;33.47;18.10;;;230.90;1920.00;;;;;;5052772;28;20078;-68
2022/02/19 02:25:12;;;;;;;32.10;19.00;;;231.00;1920.00;;;;;;5053024;28;20033;-72
2022/02/19 02:27:38;;;;;;;30.20;17.83;;;;;;;;;;5053523;28;20021;-71
2022/02/19 02:30:05;;;;;;;32.72;18.50;;;231.10;1894.40;;;;;;5053044;28;20032;-66
2022/02/19 02:32:31;;;;;;;33.05;18.67;;;231.10;1894.40;;;;;;5052536;28;20025;-67
2022/02/19 02:34:57;;;;;;;34.33;20.27;;;231.10;1894.40;;;;;;5052842;28;20502;-67
2022/02/19 02:37:24;;;;;;;36.55;21.40;;;231.10;1894.40;;;;;;5052831;28;20036;-68
2022/02/19 02:39:51;;;;;;;35.70;21.55;;;231.00;1920.00;;;;;;5053026;28;20024;-68
2022/02/19 02:42:18;;;;;;;38.38;20.52;;;231.10;1920.00;;;;;;5052875;28;20439;-68
2022/02/19 02:44:45;;;;;;;36.35;21.05;;;;;;;;;;5052895;28;20047;-69
2022/02/19 02:47:11;;;;;;;36.75;20.63;;;231.20;1894.40;;;;;;5052864;28;20025;-67
2022/02/19 02:49:37;;;;;;;43.15;25.80;;;231.00;1920.00;;;;;;5052732;28;20021;-69
2022/02/19 02:52:04;;;;;;;42.05;24.25;;;;;;;;;;5052843;28;20060;-68
2022/02/19 02:54:30;;;;;;;39.13;22.75;;;231.20;2099.20;;;;;;5052626;28;20032;-67
2022/02/19 02:56:56;;;;;;;38.10;20.98;;;231.30;1894.40;;;;;;5052689;28;20068;-66
2022/02/19 02:59:22;;;;;;;35.85;18.95;;;231.00;1945.60;;;;;;5052681;28;20063;-68
2022/02/19 03:01:47;;;;;;;32.72;17.58;;;230.90;1996.80;;;;;;5052683;28;20039;-68
2022/02/19 03:04:13;;;;;;;30.50;18.80;;;230.90;1920.00;;;;;;5052519;28;20037;-67
2022/02/19 03:06:39;;;;;;;29.50;17.67;;;231.00;1920.00;;;;;;5053240;28;20021;-69
2022/02/19 03:09:04;;;;;;;30.02;17.92;;;231.10;1920.00;;;;;;5056556;28;20029;-71
2022/02/19 03:11:30;;;;;;;29.33;17.77;;;231.00;1945.60;;;;;;5056630;28;20017;-69
2022/02/19 03:13:56;;;;;;;29.50;16.35;;;230.90;1920.00;;;;;;5056784;28;20032;-70
2022/02/19 03:16:22;;;;;;;32.08;16.95;;;231.00;1945.60;;;;;;5056823;28;20115;-72
2022/02/19 03:18:47;;;;;;;27.02;16.65;;;231.10;1920.00;;;;;;5056308;28;20032;-66
2022/02/19 03:21:13;;;;;;;33.90;19.30;;;;;;;;;;5055942;28;20020;-70
2022/02/19 03:23:39;;;;;;;29.80;16.88;;;;;;;;;;5055929;28;20025;-67
2022/02/19 03:26:07;;;;;;;28.33;16.05;;;;;;;;;;5056106;28;20040;-70
2022/02/19 03:28:34;;;;;;;33.30;19.58;;;;;;;;;;5037633;28;20029;-69
2022/02/19 03:31:00;;;;;;;29.75;18.38;;;;;;;;;;5056197;28;20049;-69
2022/02/19 03:33:26;;;;;;;34.60;17.63;;;;;;;;;;5055733;28;20425;-69
2022/02/19 03:35:54;;;;;;;18.55;11.65;;;;;;;;;;5055910;28;20471;-68
2022/02/19 03:38:20;;;;;;;20.17;11.82;;;;;;;;;;5055686;28;20029;-66
2022/02/19 03:40:47;;;;;;;20.17;12.15;;;230.90;1920.00;;;;;;5055520;28;20075;-68
2022/02/19 03:43:13;;;;;;;22.15;13.05;;;;;;;;;;5055693;28;20020;-67
2022/02/19 03:45:43;;;;;;;25.77;13.38;;;;;;;;;;5055650;28;20032;-65
2022/02/19 03:48:09;;;;;;;23.83;13.38;;;;;;;;;;5055584;28;20459;-68
2022/02/19 03:50:36;;;;;;;28.42;14.13;;;231.20;1920.00;;;;;;5055344;28;20017;-67
2022/02/19 03:53:02;;;;;;;22.13;12.85;;;231.00;1920.00;;;;;;5055371;28;20534;-69
2022/02/19 03:55:29;;;;;;;20.38;13.05;;;;;;;;;;5055153;28;20057;-69
2022/02/19 03:57:55;;;;;;;26.80;13.05;;;;;;;;;;5055468;28;20025;-67
2022/02/19 04:00:21;;;;;;;21.60;13.98;;;;;;;;;;5055342;28;20028;-66
2022/02/19 04:02:47;;;;;;;22.65;14.30;;;;;;;;;;5055000;28;20096;-66
2022/02/19 04:05:14;;;;;;;23.08;13.48;;;;;;;;;;5055219;28;20529;-67
2022/02/19 04:07:40;;;;;;;24.58;13.88;;;230.90;1920.00;;;;;;5055045;28;20029;-63
2022/02/19 04:10:07;;;;;;;20.00;13.50;;;231.00;1920.00;;;;;;5054843;28;20113;-68
2022/02/19 04:12:34;;;;;;;17.73;12.48;;;230.90;1945.60;;;;;;5054866;28;20037;-66
2022/02/19 04:15:00;;;;;;;19.95;11.63;;;;;;;;;;5054848;28;20104;-69
2022/02/19 04:17:26;;;;;;;16.92;10.63;;;;;;;;;;5054901;28;20021;-65
2022/02/19 04:19:53;;;;;;;22.33;12.10;;;;;;;;;;5053943;28;20033;-70
2022/02/19 04:22:20;;;;;;;21.15;13.88;;;;;;;;;;5055092;28;20120;-63
2022/02/19 04:24:46;;;;;;;26.38;14.35;;;;;;;;;;5054914;28;20526;-67
2022/02/19 04:27:13;;;;;;;25.95;11.98;;;;;;;;;;5055129;28;20032;-69
2022/02/19 04:29:39;;;;;;;25.75;11.73;;;;;;;;;;5055036;28;20353;-68
2022/02/19 04:32:06;;;;;;;17.27;9.77;;;;;;;;;;5054780;28;20487;-69
2022/02/19 04:34:32;;;;;;;19.75;10.52;;;;;;;;;;5054393;28;20060;-69
2022/02/19 04:36:58;;;;;;;15.88;9.75;;;;;;;;;;5054922;28;20033;-71
2022/02/19 04:39:24;;;;;;;15.10;9.30;;;;;;;;;;5054415;28;20017;-69
2022/02/19 04:41:50;;;;;;;21.95;11.32;;;;;;;;;;5054497;28;20075;-68
2022/02/19 04:44:16;;;;;;;17.20;10.48;;;;;;;;;;5054531;28;20029;-68
2022/02/19 04:46:42;;;;;;;19.48;9.43;;;;;;;;;;5054396;28;20479;-68
2022/02/19 04:49:09;;;;;;;14.88;8.80;;;;;;;;;;5054283;28;20025;-68
2022/02/19 04:51:35;;;;;;;15.57;10.25;;;;;;;;;;5054246;28;20082;-69
2022/02/19 04:54:01;;;;;;;12.93;9.30;;;;;;;;;;5054162;28;20112;-69
2022/02/19 04:56:27;;;;;;;15.55;10.30;;;;;;;;;;5054184;28;20029;-69
2022/02/19 04:58:53;;;;;;;18.25;11.90;;;;;;;;;;5054412;28;20025;-72
2022/02/19 05:01:19;;;;;;;24.52;13.60;;;;;;;;;;5054096;28;20025;-72
2022/02/19 05:03:45;;;;;;;20.23;13.95;;;;;;;;;;5035871;28;20514;-69
2022/02/19 05:06:15;;;;;;;21.38;13.50;;;;;;;;;;5054081;28;20114;-72
2022/02/19 05:08:42;;;;;;;27.70;17.92;;;;;;;;;;5053989;28;20028;-72
2022/02/19 05:11:08;;;;;;;26.77;16.08;;;;;;;;;;5053927;28;20032;-69
2022/02/19 05:13:34;;;;;;;23.60;14.43;;;;;;;;;;5054377;28;20025;-69
2022/02/19 05:16:00;;;;;;;24.52;14.30;;;;;;;;;;5053875;28;20511;-69
2022/02/19 05:18:26;;;;;;;20.83;12.70;;;;;;;;;;5054003;28;20068;-71
2022/02/19 05:20:53;;;;;;;20.52;12.55;;;;;;;;;;5053894;28;20028;-71
2022/02/19 05:23:21;;;;;;;23.27;12.23;;;;;;;;;;5053751;28;20041;-73
2022/02/19 05:25:48;;;;;;;21.90;11.95;;;;;;;;;;5053899;28;20539;-71
2022/02/19 05:28:14;;;;;;;24.08;11.40;;;;;;;;;;5035729;28;20391;-71
2022/02/19 05:30:40;;;;;;;20.52;11.50;;;;;;;;;;5053325;28;20020;-70
2022/02/19 05:33:06;;;;;;;18.38;10.70;;;;;;;;;;5053220;28;20021;-71
2022/02/19 05:35:32;;;;;;;17.02;10.10;;;;;;;;;;5053479;28;20039;-69
2022/02/19 05:37:58;;;;;;;18.95;12.05;;;;;;;;;;5053676;28;20549;-68
2022/02/19 05:40:25;;;;;;;22.70;12.25;;;;;;;;;;5053646;28;20036;-67
2022/02/19 05:42:51;;;;;;;25.17;13.70;;;;;;;;;;5053341;28;20024;-68
2022/02/19 05:45:17;;;;;;;23.73;14.25;;;;;;;;;;5053759;28;20110;-69
2022/02/19 05:47:43;;;;;;;22.60;12.68;;;;;;;;;;5053506;28;20028;-68
2022/02/19 05:50:09;;;;;;;28.40;15.77;;;;;;;;;;5053328;28;20039;-68
2022/02/19 05:52:35;;;;;;;31.45;16.70;;;;;;;;;;5053289;28;20017;-67
2022/02/19 05:55:01;;;;;;;31.48;17.50;;;;;;;;;;5053223;28;20028;-68
2022/02/19 05:57:27;;;;;;;41.85;21.60;;;;;;;;;;5053340;28;20035;-68
2022/02/19 05:59:53;;;;;;;46.00;24.77;;;;;;;;;;5053289;28;20025;-69
2022/02/19 06:02:19;;;;;;;51.38;26.90;;;;;;;;;;5053037;28;20044;-69
2022/02/19 06:04:46;;;;;;;37.28;23.27;;;;;;;;;;5053032;28;20037;-67
2022/02/19 06:07:12;;;;;;;39.20;24.35;;;;;;;;;;5053480;28;20039;-67
2022/02/19 06:09:38;;;;;;;50.55;27.35;;;;;;;;;;5052992;28;20025;-65
2022/02/19 06:12:04;;;;;;;41.83;23.08;;;;;;;;;;5053142;28;20068;-67
2022/02/19 06:14:30;;;;;;;41.10;22.15;;;;;;;;;;5053089;28;20462;-67
2022/02/19 06:16:56;;;;;;;30.40;18.88;;;;;;;;;;5053005;28;20138;-68
2022/02/19 06:19:25;;;;;;;25.27;15.20;;;;;;;;;;5052919;28;20021;-69
2022/02/19 06:21:51;;;;;;;22.55;16.10;;;;;;;;;;5052822;28;20045;-68
2022/02/19 06:24:17;;;;;;;31.52;19.05;;;;;;;;;;5052741;28;20063;-68
2022/02/19 06:26:43;;;;;;;34.97;20.50;;;;;;;;;;5053050;28;20128;-69
2022/02/19 06:29:09;;;;;;;35.00;21.10;;;;;;;;;;5052864;28;20070;-67
2022/02/19 06:31:35;;;;;;;53.42;23.40;;;;;;;;;;5052920;28;20079;-67
2022/02/19 06:34:02;;;;;;;47.92;25.08;;;;;;;;;;5052837;28;20387;-66
2022/02/19 06:36:28;;;;;;;62.63;26.50;;;;;;;;;;5052896;28;20036;-67
2022/02/19 06:38:54;;;;;;;50.72;25.40;;;;;;;;;;5053088;28;20104;-68
2022/02/19 06:41:20;;;;;;;48.75;25.65;;;;;;;;;;5052934;28;20029;-70
2022/02/19 06:43:46;;;;;;;45.80;27.98;;;;;;;;;;5056848;28;20021;-69
2022/02/19 06:46:12;;;;;;;60.63;30.42;;;;;;;;;;5056967;28;20379;-70
2022/02/19 06:48:38;;;;;;;58.35;29.60;;;;;;;;;;5056698;28;20067;-69
2022/02/19 06:51:04;;;;;;;80.28;39.28;;;;;;;;;;5056709;28;20092;-70
2022/02/19 06:53:30;;;;;;;87.63;46.15;;;;;;;;;;5056738;28;20108;-69
2022/02/19 06:55:56;;;;;;;92.88;51.03;;;;;;;;;;5056304;28;20155;-70
2022/02/19 06:58:22;;;;;;;101.72;57.00;;;;;;;;;;5056790;28;20017;-69
2022/02/19 07:00:51;;;;;;;82.57;48.15;;;;;;;;;;5056458;28;20379;-70
2022/02/19 07:03:18;;;;;;;72.40;42.35;;;;;;;;;;5056372;28;20036;-69
2022/02/19 07:05:44;;;;;;;86.35;44.75;;;;;;;;;;5056617;28;20033;-71
2022/02/19 07:08:10;;;;;;;75.05;41.00;;;;;;;;;;5056374;28;20025;-70
2022/02/19 07:10:36;;;;;;;48.42;27.73;;;;;;;;;;5056518;28;20021;-70
2022/02/19 07:13:03;;;;;;;41.65;22.45;;;;;;;;;;5056680;28;20029;-71
2022/02/19 07:15:29;;;;;;;34.55;19.88;;;;;;;;;;5056406;28;20087;-71
2022/02/19 07:17:55;;;;;;;35.38;20.50;;;;;;;;;;5056421;28;20036;-64
2022/02/19 07:20:23;;;;;;;52.90;22.58;;;;;;;;;;5056413;28;20040;-71
2022/02/19 07:22:50;;;;;;;38.60;21.48;;;;;;;;;;5056260;28;20049;-72
2022/02/19 07:25:16;;;;;;;39.28;21.25;;;;;;;;;;5056129;28;20048;-73
2022/02/19 07:27:43;;;;;;;42.97;22.77;;;;;;;;;;5056136;28;20052;-68
2022/02/19 07:30:11;;;;;;;51.30;26.70;;;;;;;;;;5055742;28;20036;-67
2022/02/19 07:32:38;;;;;;;60.65;31.45;;;;;;;;;;5055973;28;20025;-68
2022/02/19 07:35:07;;;;;;;74.28;34.40;;;;;;;;;;5055703;28;20104;-68
2022/02/19 07:37:34;;;;;;;54.80;34.35;;;;;;;;;;5055782;28;20036;-71
2022/02/19 07:40:00;;;;;;;69.78;40.05;;;;;;;;;;5056178;28;20025;-68
2022/02/19 07:42:26;;;;;;;80.30;42.03;;;333.70;1664.00;;;;;;5055699;28;20099;-67
2022/02/19 07:44:53;;;;;;;88.53;44.05;;;358.40;1664.00;;;;;;5055540;28;20115;-68
2022/02/19 07:47:29;;;;;;;85.47;45.65;;;358.50;1664.00;;;;;;5055737;28;20029;-70
2022/02/19 07:58:19;;;;;;;79.93;46.75;;;;;;;;;;5055324;28;20113;-68
2022/02/19 08:00:48;;;;;;;85.25;51.50;;;;;;;;;;5055251;28;20040;-71
2022/02/19 08:03:17;;;;;;;70.07;41.33;;;;;;;;;;5054873;28;20100;-68
2022/02/19 08:05:44;;;;;;;89.25;47.42;;;;;;;;;;5036442;28;20529;-70
2022/02/19 08:08:10;;;;;;;88.47;44.85;;;;;;;;;;5035131;28;20033;-69
2022/02/19 08:10:37;;;;;;;92.75;43.72;;;;;;;;;;5035067;28;20475;-67
2022/02/19 08:13:09;;;;;;;59.42;39.20;;;;;;;;;;5034975;28;20036;-69
2022/02/19 08:15:36;;;;;;;48.92;34.63;;;;;;;;;;5034814;28;20033;-67
2022/02/19 08:18:07;;;;;;;63.92;38.42;;;;;;;;;;5034933;28;20408;-67
2022/02/19 08:20:35;;;;;;;73.97;39.47;;;;;;;;;;5034961;28;20045;-69
2022/02/19 08:23:01;;;;;;;103.80;51.30;;;;;;;;;;5034696;28;20046;-72
2022/02/19 08:25:27;;;;;;;91.18;46.53;;;;;;;;;;5034960;28;20586;-70
2022/02/19 08:27:53;;;;;;;78.50;48.47;;;;;;;;;;5035237;28;20033;-71
2022/02/19 08:30:20;;;;;;;83.47;46.40;;;;;;;;;;5034706;28;20039;-70
2022/02/19 08:32:46;;;;;;;98.07;51.22;;;;;;;;;;5034601;28;20104;-70
2022/02/19 08:35:12;;;;;;;94.53;53.55;;;;;;;;;;5034472;28;20033;-67
2022/02/19 08:37:38;;;;;;;99.57;54.90;;;;;;;;;;5034917;28;20030;-71
2022/02/19 08:40:06;;;;;;;105.35;61.17;;;;;;;;;;5034712;28;20025;-67
2022/02/19 08:42:32;;;;;;;111.00;73.38;;;;;;;;;;5034716;28;20438;-68
2022/02/19 08:44:58;;;;;;;100.20;66.95;;;;;;;;;;5034456;28;20021;-69
2022/02/19 08:47:25;;;;;;;106.97;66.38;;;;;;;;;;5034397;28;20033;-70
2022/02/19 08:49:51;;;;;;;107.63;68.50;;;;;;;;;;5034586;28;20131;-69
2022/02/19 08:52:17;;;;;;;150.40;84.40;;;;;;;;;;5016279;28;20384;-68
2022/02/19 08:54:43;;;;;;;129.13;86.38;;;;;;;;;;5034241;28;20376;-68
2022/02/19 08:57:09;;;;;;;155.40;87.90;;;460.90;1408.00;;;;;;5034012;28;20037;-66
2022/02/19 08:59:34;;;;;;;125.78;79.57;;;461.00;1408.00;;;;;;5033896;28;20021;-66
2022/02/19 09:02:00;;;;;;;134.68;79.85;;;461.20;1536.00;;;;;;5033735;28;20040;-67
2022/02/19 09:04:26;;;;;;;119.00;79.80;;;461.40;1356.80;;;;;;5033673;28;20476;-66
2022/02/19 09:06:52;;;;;;;134.50;79.03;;;;;;;;;;5034482;28;20025;-69
2022/02/19 09:09:18;;;;;;;137.27;88.00;;;;;;;;;;5033767;28;20026;-69
2022/02/19 09:11:44;;;;;;;145.65;84.07;;;;;;;;;;5033912;28;20029;-67
2022/02/19 09:14:10;;;;;;;148.77;87.03;;;;;;;;;;5034030;28;20545;-70
2022/02/19 09:16:37;;;;;;;233.07;116.25;;;;;;;;;;5033589;28;20045;-70
2022/02/19 09:19:05;;;;;;;201.15;116.28;;;486.70;1280.00;;;;;;5033828;28;20022;-64
2022/02/19 09:21:32;;;;;;;148.90;98.55;;;486.70;1280.00;;;;;;5033262;28;20484;-67
2022/02/19 09:23:59;;;;;;;141.10;89.30;;;486.90;1254.40;;;;;;5033673;28;20088;-68
2022/02/19 09:26:25;;;;;;;132.73;89.60;;;487.00;1254.40;;;;;;5033407;28;20460;-67
2022/02/19 09:28:51;;;;;;;102.50;57.30;;;487.20;1203.20;;;;;;5033626;28;20049;-68
2022/02/19 09:31:21;;;;;;;63.28;27.52;;;512.40;1126.40;;;;;;5047767;28;20080;-67
2022/02/19 09:33:48;;;;;;;46.30;19.75;;;512.40;1126.40;;;;;;5050863;28;20442;-66
2022/02/19 09:36:15;;;;;;;89.90;52.47;;;;;;;;;;5052324;28;20128;-68
2022/02/19 09:38:41;;;;;;;37.05;24.52;;;;;;;;;;5052969;28;20081;-70
2022/02/19 09:41:07;;;;;;;124.43;81.78;;;;;;;;;;5052808;28;20029;-70
2022/02/19 09:43:37;;;;;;;67.60;40.30;;;;;;;;;;5046920;28;20021;-70
2022/02/19 09:46:04;;;;;;;19.35;12.40;;;;;;;;;;5051277;28;20025;-68
2022/02/19 09:48:30;;;;;;;15.20;9.18;;;;;;;;;;5052444;28;20019;-66
2022/02/19 09:50:57;;;;;;;8.30;6.28;;;;;;;;;;5046159;28;20029;-63
2022/02/19 09:53:27;;;;;;;9.52;6.93;;;538.10;1024.00;;;;;;5052410;28;20021;-68
2022/02/19 09:55:55;;;;;;;8.52;6.50;;;538.20;1024.00;;;;;;5052094;28;20017;-68
2022/02/19 09:58:22;;;;;;;12.40;7.18;;;538.10;1024.00;;;;;;5054600;28;20032;-67
2022/02/19 10:00:49;;;;;;;12.43;7.82;;;;;;;;;;5053424;28;20025;-71
2022/02/19 10:03:17;;;;;;;20.55;9.48;;;563.30;1024.00;;;;;;5053958;28;20033;-69
2022/02/19 10:05:52;;;;;;;12.70;8.57;;;563.50;1024.00;;;;;;5046900;28;20079;-69
2022/02/19 10:08:21;;;;;;;16.50;11.73;;;563.90;1049.60;;;;;;5034241;28;20029;-72
2022/02/19 10:10:49;;;;;;;21.33;12.23;;;;;;;;;;5055528;28;20016;-70
2022/02/19 10:13:34;;;;;;;18.55;14.10;;;;;;;;;;5056722;28;20027;-70
2022/02/19 10:16:01;;;;;;;20.30;12.52;;;;;;;;;;5050265;28;20021;-68
2022/02/19 10:18:31;;;;;;;17.83;10.88;;;640.10;896.00;;;;;;5056772;28;20459;-70
2022/02/19 10:21:16;;;;;;;200.82;116.25;;;;;;;;;;5047952;28;20036;-65
2022/02/19 10:23:47;;;;;;;34.72;18.52;;;665.90;870.40;;;;;;5053952;28;20029;-62
2022/02/19 10:26:14;;;;;;;;;;;666.30;844.80;;;;;;5056575;28;20044;-61
2022/02/19 10:28:54;;;;;;;25.73;17.85;;;691.30;819.20;;;;;;5056142;28;19912;-64
2022/02/19 10:31:20;;;;;;;24.13;18.58;;;;;;;;;;5053338;28;20105;-63
2022/02/19 10:33:46;;;;;;;23.75;11.73;;;691.90;819.20;;;;;;5056205;28;20049;-68
2022/02/19 10:36:18;;;;;;;27.92;18.85;;;691.80;793.60;;;;;;5055872;28;20087;-69
2022/02/19 10:39:00;;;;;;;59.03;41.28;;;;;;;;;;5056188;28;20021;-63
2022/02/19 10:41:33;;;;;;;26.52;13.05;;;;;;;;;;5051350;28;20055;-65
2022/02/19 10:43:59;;;;;;;15.15;8.30;;;666.30;819.20;;;;;;5055058;28;20041;-67
2022/02/19 10:46:28;;;;;;;17.20;9.05;;;;;;;;;;5055526;28;20386;-64
2022/02/19 10:48:54;;;;;;;14.10;7.47;;;;;;;;;;5055826;28;20025;-67
2022/02/19 10:51:20;;;;;;;16.60;12.77;;;691.40;793.60;;;;;;5055250;28;20028;-67
2022/02/19 10:53:57;;;;;;;20.25;12.07;;;691.50;793.60;;;;;;5036001;28;20033;-71
2022/02/19 10:56:25;;;;;;;48.15;37.10;;;691.90;768.00;;;;;;5036244;28;20518;-70
2022/02/19 10:59:02;;;;;;;13.68;8.57;;;;;;;;;;5018404;28;20049;-69
2022/02/19 11:01:28;;;;;;;24.33;9.85;;;;;;;;;;5035806;28;20030;-66
2022/02/19 11:03:54;;;;;;;47.65;33.30;;;;;;;;;;5035615;28;20584;-63
2022/02/19 11:06:21;;;;;;;19.23;12.18;;;;;;;;;;5035435;28;20108;-62
2022/02/19 11:08:47;;;;;;;29.17;13.68;;;;;;;;;;5035262;28;20029;-65
2022/02/19 11:11:13;;;;;;;38.05;11.10;;;;;;;;;;5046391;28;20487;-64
2022/02/19 11:13:40;;;;;;;20.30;10.52;;;;;;;;;;5035968;28;20033;-63
2022/02/19 11:16:12;;;;;;;11.27;7.80;;;;;;;;;;5041261;28;20060;-64
2022/02/19 11:18:44;;;;;;;15.52;8.60;;;;;;;;;;5018112;28;20029;-64
2022/02/19 11:21:10;;;;;;;7.45;5.00;;;;;;;;;;5020344;28;20026;-63
2022/02/19 11:23:37;;;;;;;17.15;7.18;;;;;;;;;;5035492;28;20044;-63
2022/02/19 11:26:03;;;;;;;7.97;6.03;;;;;;;;;;5035531;28;20027;-64
2022/02/19 11:28:34;;;;;;;12.93;6.03;;;;;;;;;;5035209;28;20485;-63
2022/02/19 11:31:00;;;;;;;8.80;5.55;;;;;;;;;;5035255;28;20452;-65
2022/02/19 11:33:28;;;;;;;9.32;6.72;;;;;;;;;;5035630;28;20037;-64
2022/02/19 11:35:59;;;;;;;7.78;5.82;;;;;;;;;;5035036;28;20067;-64
2022/02/19 11:38:32;;;;;;;12.85;6.22;;;;;;;;;;5035173;28;20032;-64
2022/02/19 11:41:10;;;;;;;12.20;7.15;;;;;;;;;;5035200;28;20507;-64
2022/02/19 11:43:39;;;;;;;11.52;6.85;;;;;;;;;;5035227;28;20128;-64
2022/02/19 11:46:29;;;;;;;18.63;9.32;;;;;;;;;;5035104;28;20029;-64
2022/02/19 11:48:55;;;;;;;16.00;7.68;;;;;;;;;;4993480;28;20117;-63
2022/02/19 11:51:24;;;;;;;7.78;4.70;;;;;;;;;;4993661;28;20083;-64
2022/02/19 11:54:06;;;;;;;18.52;7.50;;;;;;;;;;4993653;28;20381;-62
2022/02/19 11:56:35;;;;;;;9.90;6.72;;;;;;;;;;4993674;28;20045;-63
2022/02/19 11:59:02;;;;;;;19.85;7.13;;;;;;;;;;4993602;28;20022;-62
2022/02/19 12:01:29;;;;;;;15.88;8.75;;;;;;;;;;4993537;28;20034;-62
2022/02/19 12:04:13;;;;;;;13.48;7.60;;;;;;;;;;4993686;28;20034;-63
2022/02/19 12:06:43;;;;;;;11.35;7.22;;;;;;;;;;4993174;28;20041;-63
2022/02/19 12:09:10;;;;;;;19.60;10.48;;;;;;;;;;4993429;28;20551;-63
2022/02/19 12:11:55;;;;;;;18.20;8.25;;;;;;;;;;4993304;28;20027;-62
2022/02/19 12:14:39;;;;;;;15.13;6.93;;;;;;;;;;4993439;28;20038;-62
2022/02/19 12:17:09;;;;;;;27.15;17.35;;;;;;;;;;4977023;28;20130;-62
2022/02/19 12:19:53;;;;;;;21.02;12.10;;;;;;;;;;4993076;28;20064;-63
2022/02/19 12:22:49;;;;;;;15.00;6.70;;;;;;;;;;4992928;28;20137;-62
2022/02/19 12:25:16;;;;;;;10.40;8.15;;;;;;;;;;4994316;28;20040;-62
2022/02/19 12:27:45;;;;;;;12.43;8.60;;;;;;;;;;5034276;28;20072;-62
2022/02/19 12:30:17;;;;;;;18.60;10.70;;;;;;;;;;5034512;28;20463;-62
2022/02/19 12:32:44;;;;;;;21.10;15.30;;;;;;;;;;5034592;28;20121;-62
2022/02/19 12:35:10;;;;;;;12.85;7.28;;;;;;;;;;5034247;28;20021;-63
2022/02/19 12:37:37;;;;;;;15.88;10.15;;;;;;;;;;5034496;28;20043;-62
2022/02/19 12:40:03;;;;;;;28.42;15.57;;;;;;;;;;5033783;28;20092;-63
2022/02/19 12:42:30;;;;;;;95.93;25.80;;;;;;;;;;5034119;28;20032;-63
2022/02/19 12:45:00;;;;;;;26.95;11.52;;;;;;;;;;5034508;28;20025;-61
2022/02/19 12:47:26;;;;;;;11.10;6.00;;;;;;;;;;5034113;28;20026;-64
2022/02/19 12:49:52;;;;;;;27.15;15.25;;;;;;;;;;5034250;28;20030;-63
2022/02/19 12:52:21;;;;;;;17.38;11.32;;;;;;;;;;5033832;28;20021;-62
2022/02/19 12:54:47;;;;;;;36.17;17.05;;;;;;;;;;5033737;28;20155;-62
2022/02/19 12:57:21;;;;;;;10.65;7.30;;;;;;;;;;5033571;28;20037;-62
2022/02/19 12:59:48;;;;;;;22.42;12.45;;;;;;;;;;5033687;28;20123;-62
2022/02/19 13:02:17;;;;;;;22.27;15.48;;;;;;;;;;5033927;28;20030;-63
2022/02/19 13:04:44;;;;;;;10.30;8.50;;;;;;;;;;5033577;28;20233;-63
2022/02/19 13:07:21;;;;;;;13.48;8.50;;;;;;;;;;5033550;28;20025;-64
2022/02/19 13:09:51;;;;;;;16.25;7.53;;;;;;;;;;5033455;28;20100;-63
2022/02/19 13:12:24;;;;;;;11.67;8.33;;;;;;;;;;5033847;28;20026;-63
2022/02/19 13:14:50;;;;;;;10.73;6.10;;;589.50;870.40;;;;;;5033501;28;20029;-63
2022/02/19 13:17:16;;;;;;;14.18;8.40;;;589.50;870.40;;;;;;5033505;28;20485;-62
2022/02/19 13:19:42;;;;;;;13.63;7.43;;;;;;;;;;5033968;28;20053;-63
2022/02/19 13:22:25;;;;;;;11.43;9.73;;;;;;;;;;5032769;28;20510;-63
2022/02/19 13:24:52;;;;;;;19.55;9.63;;;;;;;;;;5033093;28;20029;-63
2022/02/19 13:27:25;;;;;;;19.92;11.48;;;;;;;;;;5033173;28;20075;-64
2022/02/19 13:30:03;;;;;;;29.67;18.25;;;;;;;;;;5033394;28;20049;-64
2022/02/19 13:32:35;;;;;;;28.20;11.05;;;;;;;;;;5033439;28;20029;-64
2022/02/19 13:35:04;;;;;;;30.02;13.43;;;;;;;;;;5033031;28;20030;-64
2022/02/19 13:37:31;;;;;;;20.05;11.45;;;;;;;;;;5033150;28;20471;-64
2022/02/19 13:40:11;;;;;;;34.03;15.05;;;;;;;;;;5033128;28;20032;-63